Time;durP1;ratioP1;P1;durP2;ratioP2;P2;SDS_P1;SDS_P2;PMS_P1;PMS_P2;Temp;Humidity;BMP_temperature;BMP_pressure;BME280_temperature;BME280_humidity;BME280_pressure;Samples;Min_cycle;Max_cycle;Signal;HPM_P1;HPM_P2
2021/11/08 00:01:50;;;;;;;39.03;21.50;;;;;;;5.93;98.34;99041.44;1726888;82;20861;-75
2021/11/08 00:04:16;;;;;;;39.40;21.48;;;;;;;5.90;98.28;99037.39;1675315;83;20911;-76
2021/11/08 00:06:43;;;;;;;35.90;21.05;;;;;;;5.91;98.36;99036.84;1721798;82;21493;-76
2021/11/08 00:09:13;;;;;;;33.18;21.37;;;;;;;5.87;98.40;99036.59;1707987;83;21196;-76
2021/11/08 00:11:41;;;;;;;38.73;21.87;;;;;;;5.85;98.43;99027.91;1731011;82;20885;-76
2021/11/08 00:14:13;;;;;;;36.70;21.20;;;;;;;5.84;98.45;99031.73;1736781;82;20884;-76
2021/11/08 00:16:58;;;;;;;38.40;21.62;;;;;;;5.82;98.49;99038.03;1765033;80;20893;-76
2021/11/08 00:20:04;;;;;;;35.05;19.98;;;;;;;5.81;98.47;99044.59;1711920;83;21480;-74
2021/11/08 00:21:48;;;;;;;39.15;20.82;;;;;;;5.78;98.79;99041.09;1699937;83;21054;-76
2021/11/08 00:24:17;;;;;;;38.05;21.48;;;;;;;5.76;98.55;99035.72;1715205;83;20968;-76
2021/11/08 00:26:44;;;;;;;37.90;21.48;;;;;;;5.73;98.50;99031.67;1715152;83;21536;-72
2021/11/08 00:29:12;;;;;;;35.35;21.15;;;;;;;5.67;98.50;99028.77;1715114;83;21650;-72
2021/11/08 00:31:38;;;;;;;40.33;21.75;;;;;;;5.63;98.53;99034.55;1715957;83;20948;-75
2021/11/08 00:34:07;;;;;;;42.88;21.90;;;;;;;5.59;98.58;99037.60;1716662;83;20975;-74
2021/11/08 00:36:33;;;;;;;39.05;22.05;;;;;;;5.56;98.61;99038.19;1716713;83;20881;-74
2021/11/08 00:39:00;;;;;;;41.68;21.97;;;;;;;5.50;98.67;99040.73;1716675;83;20899;-74
2021/11/08 00:41:26;;;;;;;41.23;20.70;;;;;;;5.46;98.76;99041.06;1716709;83;20943;-75
2021/11/08 00:43:53;;;;;;;38.95;21.68;;;;;;;5.43;98.92;99049.81;1716575;83;20983;-74
2021/11/08 00:46:21;;;;;;;40.67;22.70;;;;;;;5.41;99.10;99045.22;1716576;83;21134;-75
2021/11/08 00:48:47;;;;;;;41.25;21.68;;;;;;;5.39;99.20;99044.15;1716646;83;20999;-75
2021/11/08 00:51:15;;;;;;;38.75;21.02;;;;;;;5.38;99.33;99043.08;1716870;83;20987;-76
2021/11/08 00:53:42;;;;;;;39.35;21.55;;;;;;;5.37;99.37;99038.19;1716932;83;20995;-73
2021/11/08 00:56:13;;;;;;;36.35;19.50;;;;;;;5.37;99.36;99040.91;1716928;83;20940;-74
2021/11/08 00:58:39;;;;;;;42.53;22.22;;;;;;;5.37;99.34;99036.02;1716656;83;21959;-74
2021/11/08 01:01:08;;;;;;;34.73;18.87;;;;;;;5.36;99.34;99050.18;1716898;83;21487;-73
2021/11/08 01:03:41;;;;;;;42.70;21.65;;;;;;;5.36;99.37;99029.77;1742533;81;20896;-73
2021/11/08 01:06:08;;;;;;;39.90;20.72;;;;;;;5.38;99.28;99036.27;1748324;82;20890;-73
2021/11/08 01:08:35;;;;;;;34.65;20.17;;;;;;;5.39;99.31;99037.34;1745809;81;20942;-77
2021/11/08 01:11:03;;;;;;;36.55;21.35;;;;;;;5.40;99.24;99036.79;1720813;82;21593;-77
2021/11/08 01:13:29;;;;;;;32.55;19.57;;;;;;;5.44;99.23;99041.91;1694896;82;21007;-77
2021/11/08 01:15:57;;;;;;;41.68;20.85;;;;;;;5.47;99.14;99039.95;1712810;81;21050;-77
2021/11/08 01:18:24;;;;;;;33.88;19.60;;;;;;;5.51;99.01;99042.34;1696948;81;20986;-77
2021/11/08 01:20:52;;;;;;;43.75;20.55;;;;;;;5.52;98.89;99035.25;1696828;82;21002;-76
2021/11/08 01:23:22;;;;;;;45.15;21.07;;;;;;;5.56;98.96;99028.66;1688646;82;21873;-76
2021/11/08 01:25:58;;;;;;;41.60;20.62;;;;;;;5.58;98.77;99030.53;1683476;83;21514;-77
2021/11/08 01:28:27;;;;;;;33.30;19.45;;;;;;;5.61;98.50;99035.39;1713532;83;21503;-77
2021/11/08 01:30:49;;;;;;;38.17;20.25;;;;;;;5.62;98.34;99031.02;1697746;83;20969;-77
2021/11/08 01:33:17;;;;;;;38.35;19.67;;;;;;;5.65;98.20;99032.34;1692814;82;21015;-77
2021/11/08 01:35:45;;;;;;;30.27;18.25;;;;;;;5.67;97.99;99036.94;1710457;83;21173;-75
2021/11/08 01:38:24;;;;;;;35.55;20.32;;;;;;;5.68;97.86;99030.38;1706477;83;21049;-76
2021/11/08 01:40:42;;;;;;;30.43;18.70;;;;;;;5.68;97.66;99026.30;1690081;83;21101;-76
2021/11/08 01:43:11;;;;;;;30.65;18.85;;;;;;;5.71;97.39;99033.06;1698173;81;21002;-75
2021/11/08 01:45:38;;;;;;;43.83;19.42;;;;;;;5.73;97.45;99030.86;1716501;83;20918;-75
2021/11/08 01:48:05;;;;;;;35.55;18.87;;;;;;;5.73;97.20;99030.86;1720630;83;21067;-76
2021/11/08 01:50:33;;;;;;;30.23;18.17;;;;;;;5.72;96.98;99031.41;1720297;83;21490;-73
2021/11/08 01:53:02;;;;;;;30.95;18.85;;;;;;;5.71;96.83;99035.80;1721057;82;21567;-73
2021/11/08 01:55:28;;;;;;;39.20;19.70;;;;;;;5.68;96.68;99027.66;1676803;83;21157;-74
2021/11/08 01:57:55;;;;;;;31.45;18.15;;;;;;;5.67;96.73;99028.77;1717953;82;21057;-80
2021/11/08 02:00:24;;;;;;;33.58;18.50;;;;;;;5.65;96.68;99032.34;1714684;82;22329;-78
2021/11/08 02:02:51;;;;;;;34.65;19.67;;;;;;;5.62;96.56;99024.76;1718375;83;20883;-79
2021/11/08 02:05:18;;;;;;;31.48;17.50;;;;;;;5.58;96.60;99041.43;1716128;83;20883;-77
2021/11/08 02:07:45;;;;;;;30.80;17.50;;;;;;;5.53;96.87;99039.59;1713969;83;21065;-76
2021/11/08 02:10:15;;;;;;;34.05;19.52;;;;;;;5.49;96.85;99033.66;1720966;83;21525;-74
2021/11/08 02:12:44;;;;;;;30.33;18.47;;;;;;;5.46;96.80;99047.86;1716917;83;20840;-75
2021/11/08 02:15:16;;;;;;;32.95;19.92;;;;;;;5.41;96.85;99039.22;1718506;83;20935;-75
2021/11/08 02:17:46;;;;;;;30.50;18.17;;;;;;;5.37;97.10;99036.02;1720481;83;21552;-75
2021/11/08 02:20:19;;;;;;;33.70;18.52;;;;;;;5.34;97.33;99039.33;1720379;83;20943;-70
2021/11/08 02:22:49;;;;;;;34.10;19.92;;;;;;;5.30;97.38;99043.19;1668745;83;20940;-76
2021/11/08 02:25:18;;;;;;;39.80;19.15;;;;;;;5.26;97.37;99044.32;1689204;82;21116;-74
2021/11/08 02:27:45;;;;;;;36.68;19.20;;;;;;;5.24;97.56;99037.00;1719361;82;20926;-73
2021/11/08 02:30:12;;;;;;;37.90;20.05;;;;;;;5.23;98.00;99031.30;1715244;83;20974;-72
2021/11/08 02:32:39;;;;;;;36.50;19.67;;;;;;;5.21;97.74;99032.69;1718122;83;21497;-73
2021/11/08 02:35:10;;;;;;;33.30;18.32;;;;;;;5.17;97.88;99033.05;1720554;82;21093;-73
2021/11/08 02:37:37;;;;;;;31.12;19.02;;;;;;;5.14;97.79;99023.56;1699133;83;21085;-73
2021/11/08 02:40:06;;;;;;;39.15;18.82;;;;;;;5.12;97.76;99019.51;1719354;83;20982;-75
2021/11/08 02:42:33;;;;;;;32.98;18.00;;;;;;;5.08;97.88;99015.20;1679376;85;21023;-75
2021/11/08 02:45:03;;;;;;;30.25;17.15;;;;;;;5.03;97.92;99017.98;1678910;85;20982;-75
2021/11/08 02:47:28;;;;;;;29.48;17.23;;;;;;;4.99;98.26;99030.55;1717857;83;20840;-73
2021/11/08 02:49:55;;;;;;;33.33;18.02;;;;;;;4.95;98.38;99019.45;1719974;83;21111;-72
2021/11/08 02:52:25;;;;;;;32.08;17.07;;;;;;;4.92;98.78;99025.47;1689630;84;20990;-73
2021/11/08 02:54:52;;;;;;;33.53;18.05;;;;;;;4.90;98.67;99038.55;1672369;84;21098;-73
2021/11/08 02:57:23;;;;;;;34.63;19.10;;;;;;;4.87;98.58;99035.05;1684989;84;21019;-73
2021/11/08 02:59:49;;;;;;;31.82;18.17;;;;;;;4.85;98.45;99035.08;1680013;84;20983;-72
2021/11/08 03:02:17;;;;;;;31.70;17.07;;;;;;;4.80;98.45;99037.31;1709586;83;21783;-73
2021/11/08 03:04:47;;;;;;;33.02;17.82;;;;;;;4.76;98.66;99038.98;1709822;83;20990;-74
2021/11/08 03:07:14;;;;;;;31.45;17.50;;;;;;;4.71;98.73;99036.88;1712032;83;20991;-73
2021/11/08 03:09:45;;;;;;;32.80;18.62;;;;;;;4.67;98.77;99042.08;1713547;83;21066;-74
2021/11/08 03:12:15;;;;;;;30.32;17.90;;;;;;;4.63;98.89;99051.36;1713762;83;21032;-72
2021/11/08 03:15:28;;;;;;;32.28;19.27;;;;;;;4.60;98.98;99049.25;1713847;83;21172;-72
2021/11/08 03:17:18;;;;;;;31.80;19.00;;;;;;;4.58;99.18;99049.28;1707358;82;21022;-73
2021/11/08 03:19:45;;;;;;;34.88;18.77;;;;;;;4.55;99.16;99046.59;1712870;83;21097;-70
2021/11/08 03:22:16;;;;;;;35.85;18.85;;;;;;;4.51;99.38;99046.91;1710112;83;20974;-72
2021/11/08 03:29:59;;;;;;;37.85;19.20;;;;;;;4.44;99.66;99037.47;1714062;83;21006;-72
2021/11/08 03:32:26;;;;;;;32.03;17.45;;;;;;;4.35;99.91;99038.64;1738496;81;21138;-72
2021/11/08 03:35:02;;;;;;;33.67;18.40;;;;;;;4.32;100.00;99035.14;1741689;81;21586;-71
2021/11/08 03:37:29;;;;;;;33.50;19.32;;;;;;;4.32;100.00;99035.14;1742422;81;21071;-72
2021/11/08 03:39:56;;;;;;;32.93;19.42;;;;;;;4.30;100.00;99031.35;1709410;82;21148;-72
2021/11/08 03:42:24;;;;;;;28.95;17.27;;;;;;;4.27;100.00;99031.11;1713628;83;21558;-73
2021/11/08 03:44:51;;;;;;;37.13;18.65;;;;;;;4.27;100.00;99031.11;1724219;82;21653;-72
2021/11/08 03:47:17;;;;;;;34.25;18.25;;;;;;;4.26;100.00;99037.09;1731377;82;20976;-72
2021/11/08 03:49:44;;;;;;;34.13;18.92;;;;;;;4.23;100.00;99029.52;1708374;83;20999;-73
2021/11/08 03:52:10;;;;;;;33.53;18.62;;;;;;;4.21;100.00;99027.63;1717873;81;21219;-73
2021/11/08 03:54:37;;;;;;;36.55;18.35;;;;;;;4.19;100.00;99025.75;1718018;82;20991;-72
2021/11/08 03:57:05;;;;;;;32.95;18.67;;;;;;;4.17;100.00;99022.51;1714434;83;21503;-73
2021/11/08 03:59:32;;;;;;;29.18;17.12;;;;;;;4.16;100.00;99028.23;1701416;83;21594;-76
2021/11/08 04:01:59;;;;;;;33.23;16.97;;;;;;;4.15;100.00;99026.61;1716970;83;20888;-75
2021/11/08 04:04:26;;;;;;;33.18;18.45;;;;;;;4.11;100.00;99025.56;1716941;83;21236;-74
2021/11/08 04:06:53;;;;;;;27.60;16.32;;;;;;;4.07;100.00;99027.22;1716972;83;20995;-74
2021/11/08 04:09:20;;;;;;;33.60;19.02;;;;;;;4.02;100.00;99022.68;1695614;83;20908;-74
2021/11/08 04:11:47;;;;;;;28.95;17.10;;;;;;;4.02;100.00;99022.68;1736589;81;20915;-74
2021/11/08 04:14:15;;;;;;;35.43;18.87;;;;;;;4.01;100.00;99025.68;1733902;81;21482;-75
2021/11/08 04:16:45;;;;;;;31.05;17.75;;;;;;;4.01;100.00;99025.68;1708382;82;21074;-74
2021/11/08 04:19:12;;;;;;;34.83;18.40;;;;;;;4.03;100.00;99033.00;1705348;83;20956;-74
2021/11/08 04:21:39;;;;;;;32.88;18.00;;;;;;;4.03;100.00;99043.86;1718718;83;20900;-74
2021/11/08 04:24:07;;;;;;;37.55;18.73;;;;;;;4.05;100.00;99044.35;1717169;83;20943;-75
2021/11/08 04:26:36;;;;;;;33.33;16.65;;;;;;;4.04;100.00;99048.20;1717047;83;20940;-75
2021/11/08 04:29:04;;;;;;;36.28;18.45;;;;;;;4.03;100.00;99044.67;1717251;83;21136;-75
2021/11/08 04:31:34;;;;;;;29.15;17.55;;;;;;;4.04;100.00;99039.50;1716909;83;20864;-75
2021/11/08 04:35:02;;;;;;;32.33;18.55;;;;;;;4.03;100.00;99046.03;1717398;83;21459;-75
2021/11/08 04:42:09;;;;;;;;;;;;;;;3.99;100.00;99055.84;1719776;83;21160;-76
2021/11/08 04:50:13;;;;;;;31.48;18.15;;;;;;;3.95;100.00;99075.16;1709590;83;20976;-76
2021/11/08 04:58:29;;;;;;;34.92;18.62;;;;;;;3.91;100.00;99065.41;1716980;83;20995;-71
2021/11/08 05:27:54;;;;;;;31.42;16.25;;;;;;;3.98;100.00;99090.88;1688058;85;20904;-69
2021/11/08 05:30:17;;;;;;;24.37;14.85;;;;;;;3.97;100.00;99105.01;1688342;85;20996;-73
2021/11/08 05:32:49;;;;;;;26.55;16.73;;;;;;;4.01;100.00;99112.59;1688488;85;21506;-69
2021/11/08 05:35:16;;;;;;;25.55;15.05;;;;;;;4.03;100.00;99113.12;1688619;85;21134;-68
2021/11/08 05:37:44;;;;;;;30.35;15.45;;;;;;;4.04;100.00;99109.31;1707399;83;20994;-72
2021/11/08 05:40:15;;;;;;;32.88;15.90;;;;;;;4.05;100.00;99110.91;1722744;83;21537;-74
2021/11/08 05:42:42;;;;;;;26.12;15.60;;;;;;;4.06;100.00;99115.23;1722085;83;20982;-79
2021/11/08 05:45:12;;;;;;;33.88;16.50;;;;;;;4.04;100.00;99107.41;1690881;84;20943;-71
2021/11/08 05:47:39;;;;;;;25.10;15.70;;;;;;;4.09;100.00;99122.83;1714573;82;21114;-72
2021/11/08 05:50:07;;;;;;;26.50;15.30;;;;;;;4.09;100.00;99122.83;1678925;84;21428;-69
2021/11/08 05:52:34;;;;;;;27.85;14.87;;;;;;;4.14;100.00;99122.78;1717845;83;20934;-72
2021/11/08 05:55:01;;;;;;;27.62;14.00;;;;;;;4.12;100.00;99117.63;1719955;83;21101;-71
2021/11/08 05:57:48;;;;;;;25.30;14.98;;;;;;;4.12;100.00;99117.63;1721060;83;20890;-76
2021/11/08 06:49:47;;;;;;;20.68;12.13;;;;;;;8.40;81.79;99156.77;1746406;81;21458;-70
2021/11/08 06:52:16;;;;;;;21.75;11.93;;;;;;;8.58;79.99;99150.30;1744337;81;20999;-70
2021/11/08 06:54:45;;;;;;;24.23;12.35;;;;;;;8.74;79.29;99161.64;1742666;81;21805;-72
2021/11/08 06:57:14;;;;;;;20.25;12.05;;;;;;;8.79;78.53;99160.70;1742856;81;20883;-73
2021/11/08 06:59:41;;;;;;;18.92;11.53;;;;;;;8.60;77.09;99153.53;1733654;81;20991;-73
2021/11/08 07:02:08;;;;;;;19.62;11.18;;;;;;;8.43;78.34;99162.98;1734337;80;21622;-75
2021/11/08 07:04:35;;;;;;;19.23;11.70;;;;;;;8.26;77.78;99173.20;1738357;80;21158;-72
2021/11/08 07:07:01;;;;;;;20.12;11.33;;;;;;;8.05;79.34;99171.27;1715289;82;21145;-73
2021/11/08 07:09:28;;;;;;;20.50;11.85;;;;;;;7.86;79.50;99165.94;1714850;81;21222;-70
2021/11/08 07:11:55;;;;;;;16.62;11.22;;;;;;;7.65;80.25;99171.03;1738062;81;20944;-70
2021/11/08 07:14:22;;;;;;;17.77;10.60;;;;;;;7.49;81.04;99169.75;1745815;82;20884;-73
2021/11/08 07:16:48;;;;;;;18.23;10.72;;;;;;;7.33;81.79;99178.00;1743248;81;20876;-71
2021/11/08 07:19:16;;;;;;;16.67;10.43;;;;;;;7.16;82.62;99187.59;1750715;81;21095;-74
2021/11/08 07:21:46;;;;;;;18.27;10.85;;;;;;;7.09;83.81;99185.81;1718386;82;20936;-74
2021/11/08 07:24:13;;;;;;;18.50;11.50;;;;;;;7.07;84.31;99181.20;1717177;82;21179;-74
2021/11/08 07:26:45;;;;;;;22.45;11.40;;;;;;;7.07;84.66;99188.03;1698791;83;20989;-74
2021/11/08 07:29:16;;;;;;;18.37;11.03;;;;;;;7.09;84.95;99183.08;1691311;83;20979;-74
2021/11/08 07:31:45;;;;;;;21.00;9.90;;;;;;;7.13;85.36;99179.19;1720541;82;21022;-71
2021/11/08 07:34:12;;;;;;;19.48;10.95;;;;;;;7.19;85.97;99180.16;1746317;81;20891;-78
2021/11/08 07:36:41;;;;;;;17.42;10.70;;;;;;;7.27;85.52;99184.11;1712607;83;20936;-73
2021/11/08 07:39:13;;;;;;;16.67;10.32;;;;;;;7.35;85.21;99185.33;1694894;81;21040;-75
2021/11/08 07:41:46;;;;;;;22.87;10.85;;;;;;;7.42;84.91;99196.66;1692854;83;20945;-82
2021/11/08 07:44:14;;;;;;;17.75;10.63;;;;;;;7.47;84.94;99195.20;1706711;82;21163;-76
2021/11/08 07:46:44;;;;;;;16.80;10.23;;;;;;;7.53;84.75;99204.31;1697826;82;21004;-72
2021/11/08 07:49:13;;;;;;;14.78;9.83;;;;;;;7.64;84.51;99204.92;1713143;82;20919;-69
2021/11/08 07:51:50;;;;;;;15.55;9.50;;;;;;;7.85;84.42;99192.45;1714541;81;20974;-70
2021/11/08 07:54:18;;;;;;;14.65;10.20;;;;;;;8.13;83.52;99201.38;1716901;81;21007;-80
2021/11/08 07:56:52;;;;;;;17.05;9.95;;;;;;;8.37;82.45;99203.88;1735402;81;20946;-71
2021/11/08 07:59:25;;;;;;;15.38;9.65;;;;;;;8.67;81.52;99204.24;1732490;80;20948;-69
2021/11/08 08:01:56;;;;;;;17.00;10.05;;;;;;;9.02;79.59;99205.28;1745131;81;21038;-72
2021/11/08 08:04:23;;;;;;;16.52;9.50;;;;;;;9.31;78.01;99199.28;1709875;82;21172;-67
2021/11/08 08:06:54;;;;;;;14.90;8.50;;;;;;;9.48;76.29;99196.05;1771866;80;21534;-72
2021/11/08 08:09:25;;;;;;;13.98;8.63;;;;;;;9.66;76.88;99211.99;1716592;83;21165;-75
2021/11/08 08:11:55;;;;;;;15.23;8.85;;;;;;;9.77;74.93;99209.77;1714746;83;21560;-71
2021/11/08 08:14:23;;;;;;;13.20;8.13;;;;;;;9.86;74.86;99214.13;1711859;83;21028;-70
2021/11/08 08:16:57;;;;;;;16.35;8.68;;;;;;;9.88;72.14;99222.84;1693823;82;20981;-70
2021/11/08 08:19:31;;;;;;;16.12;8.33;;;;;;;9.86;72.68;99222.34;1716042;83;20989;-71
2021/11/08 08:22:01;;;;;;;14.70;9.23;;;;;;;9.94;72.88;99225.67;1742031;81;21068;-72
2021/11/08 08:24:27;;;;;;;15.25;7.70;;;;;;;10.17;73.29;99229.67;1688162;83;21062;-69
2021/11/08 08:26:57;;;;;;;14.73;8.53;;;;;;;10.31;69.74;99224.88;1718839;83;21067;-68
2021/11/08 08:29:31;;;;;;;19.27;9.43;;;;;;;10.23;70.32;99231.17;1748470;80;21461;-71
2021/11/08 08:32:02;;;;;;;14.53;9.37;;;;;;;10.32;70.54;99233.36;1710757;82;21043;-72
2021/11/08 08:34:32;;;;;;;14.05;9.13;;;;;;;10.57;70.06;99232.53;1728760;82;22032;-71
2021/11/08 08:37:03;;;;;;;13.88;8.38;;;;;;;10.69;68.33;99226.96;1748390;81;21443;-73
2021/11/08 08:39:34;;;;;;;19.77;8.38;;;;;;;10.71;68.93;99237.86;1749568;81;21475;-69
2021/11/08 08:42:07;;;;;;;14.07;8.40;;;;;;;10.74;69.19;99242.70;1721374;81;21189;-71
2021/11/08 08:44:36;;;;;;;17.30;9.15;;;;;;;10.62;67.65;99246.66;1742539;81;20986;-70
2021/11/08 08:47:04;;;;;;;17.00;8.30;;;;;;;10.51;68.86;99242.62;1747762;81;21780;-68
2021/11/08 08:49:34;;;;;;;19.05;9.10;;;;;;;10.56;68.24;99250.13;1722078;82;21690;-70
2021/11/08 08:52:08;;;;;;;17.48;9.10;;;;;;;10.65;68.41;99238.34;1703103;83;21000;-69
2021/11/08 08:54:36;;;;;;;20.82;8.48;;;;;;;10.83;68.72;99244.08;1728718;81;21216;-73
2021/11/08 08:57:10;;;;;;;13.83;7.08;;;;;;;11.02;65.91;99251.94;1693993;83;20967;-77
2021/11/08 08:59:40;;;;;;;16.20;9.03;;;;;;;11.14;66.40;99250.14;1726284;81;21149;-73
2021/11/08 09:02:08;;;;;;;16.25;8.18;;;;;;;11.28;66.19;99253.27;1718792;80;20966;-71
2021/11/08 09:04:37;;;;;;;18.48;8.70;;;;;;;11.26;64.59;99248.09;1736345;81;21055;-70
2021/11/08 09:07:08;;;;;;;19.52;7.97;;;;;;;11.12;65.62;99251.59;1729897;81;20951;-73
2021/11/08 09:09:37;;;;;;;;;;;;;;;10.94;65.29;99249.48;1736352;81;21038;-71
2021/11/08 09:12:07;;;;;;;13.93;7.25;;;;;;;10.79;65.21;99254.09;1740499;82;21152;-72
2021/11/08 09:14:35;;;;;;;19.52;7.45;;;;;;;10.59;64.69;99252.23;1745638;81;21499;-74
2021/11/08 09:17:05;;;;;;;17.73;8.00;;;;;;;10.44;64.85;99247.22;1720782;82;20946;-72
2021/11/08 09:19:31;;;;;;;17.87;8.30;;;;;;;10.32;64.43;99248.45;1746709;82;20888;-76
2021/11/08 09:21:59;;;;;;;19.12;7.28;;;;;;;10.18;65.42;99243.63;1748246;81;20942;-75
2021/11/08 09:24:25;;;;;;;13.20;6.72;;;;;;;10.19;66.15;99239.23;1709844;82;21197;-72
2021/11/08 09:26:55;;;;;;;12.18;6.87;;;;;;;10.41;66.02;99226.48;1748439;81;20872;-82
2021/11/08 09:29:24;;;;;;;11.88;7.25;;;;;;;10.52;64.37;99225.83;1742920;81;20923;-73
2021/11/08 09:31:55;;;;;;;16.07;7.03;;;;;;;10.43;64.11;99225.02;1700176;82;21042;-75
2021/11/08 09:34:24;;;;;;;10.78;6.20;;;;;;;10.19;64.11;99238.39;1724220;81;21087;-74
2021/11/08 09:36:58;;;;;;;12.95;7.25;;;;;;;10.06;64.49;99231.91;1741245;81;21165;-72
2021/11/08 09:39:33;;;;;;;14.80;6.92;;;;;;;10.38;64.82;99250.47;1659297;83;20913;-73
2021/11/08 09:42:08;;;;;;;10.55;6.05;;;;;;;10.86;63.26;99243.42;1728115;81;20994;-77
2021/11/08 09:44:45;;;;;;;11.03;5.85;;;;;;;11.44;61.67;99248.29;1693571;83;20994;-76
2021/11/08 09:47:14;;;;;;;12.63;6.65;;;;;;;12.03;60.11;99249.73;1718108;81;21061;-76
2021/11/08 09:49:53;;;;;;;10.28;5.75;;;;;;;12.53;57.76;99246.14;1701640;82;20990;-74
2021/11/08 09:52:21;;;;;;;9.70;5.65;;;;;;;12.92;56.24;99235.17;1738552;81;20892;-74
2021/11/08 09:54:49;;;;;;;11.35;5.45;;;;;;;13.21;55.09;99257.70;1694240;81;20999;-73
2021/11/08 09:57:18;;;;;;;9.55;5.03;;;;;;;13.29;52.93;99257.34;1723150;81;20892;-72
2021/11/08 09:59:47;;;;;;;7.33;4.83;;;;;;;13.38;52.60;99256.69;1717662;81;20959;-73
2021/11/08 10:02:14;;;;;;;12.60;5.25;;;;;;;13.34;53.11;99254.37;1717016;81;21518;-71
2021/11/08 10:04:46;;;;;;;8.08;4.55;;;;;;;13.14;53.10;99259.59;1732618;81;21054;-72
2021/11/08 10:07:19;;;;;;;8.48;5.00;;;;;;;12.80;52.89;99266.23;1733236;80;20985;-71
2021/11/08 10:09:49;;;;;;;11.70;5.80;;;;;;;12.35;53.81;99262.55;1720313;81;20907;-71
2021/11/08 10:12:20;;;;;;;12.18;5.70;;;;;;;11.96;54.76;99254.95;1726677;81;20911;-72
2021/11/08 10:14:54;;;;;;;13.22;5.50;;;;;;;11.51;55.91;99269.77;1667130;81;21183;-72
2021/11/08 10:17:22;;;;;;;9.00;5.00;;;;;;;11.15;56.19;99281.17;1743073;82;37600;-71
2021/11/08 10:19:52;;;;;;;14.15;5.60;;;;;;;11.00;57.60;99275.61;1720395;81;21030;-71
2021/11/08 10:22:19;;;;;;;9.73;5.37;;;;;;;11.34;57.75;99280.81;1730944;81;20844;-73
2021/11/08 10:24:47;;;;;;;10.30;6.08;;;;;;;11.90;55.66;99279.09;1678886;82;21550;-73
2021/11/08 10:27:18;;;;;;;12.55;5.53;;;;;;;12.21;54.92;99271.86;1714002;82;21163;-73
2021/11/08 10:29:48;;;;;;;10.18;5.45;;;;;;;12.35;54.70;99272.18;1724426;80;21002;-75
2021/11/08 10:32:15;;;;;;;13.20;5.35;;;;;;;12.21;54.62;99259.47;1728931;80;21604;-76
2021/11/08 10:34:53;;;;;;;15.00;6.35;;;;;;;12.17;54.99;99253.59;1712967;83;21032;-77
2021/11/08 10:37:29;;;;;;;13.32;5.47;;;;;;;12.00;54.73;99257.28;1713163;83;21468;-77
2021/11/08 10:40:01;;;;;;;10.90;5.75;;;;;;;11.61;55.69;99252.89;1709250;83;21086;-78
2021/11/08 10:42:32;;;;;;;10.95;5.70;;;;;;;11.23;56.94;99257.80;1711644;83;21462;-77
2021/11/08 10:44:59;;;;;;;13.38;5.72;;;;;;;10.88;57.92;99250.77;1707417;84;21556;-74
2021/11/08 10:47:28;;;;;;;12.23;5.60;;;;;;;10.55;58.88;99249.89;1708389;84;21546;-71
2021/11/08 10:49:56;;;;;;;14.30;5.75;;;;;;;10.38;59.53;99249.91;1708768;84;21016;-75
2021/11/08 10:52:31;;;;;;;9.78;4.72;;;;;;;10.30;60.17;99245.78;1708420;84;21150;-72
2021/11/08 10:54:59;;;;;;;14.05;6.35;;;;;;;10.27;60.29;99249.16;1708473;84;20849;-74
2021/11/08 10:57:29;;;;;;;13.55;6.25;;;;;;;10.27;60.32;99244.48;1708469;84;21003;-73
2021/11/08 10:59:57;;;;;;;8.88;4.97;;;;;;;10.30;60.87;99255.38;1707783;84;20971;-77
2021/11/08 11:02:31;;;;;;;11.50;5.67;;;;;;;10.34;61.35;99250.88;1708671;84;20991;-74
2021/11/08 11:05:06;;;;;;;10.08;5.58;;;;;;;10.44;60.75;99248.59;1709049;84;21136;-72
2021/11/08 11:07:37;;;;;;;12.20;5.22;;;;;;;10.44;60.96;99251.34;1707195;84;20991;-82
2021/11/08 11:10:18;;;;;;;16.62;6.08;;;;;;;10.47;61.10;99260.30;1708720;84;21630;-77
2021/11/08 11:12:51;;;;;;;12.28;5.45;;;;;;;10.54;60.13;99256.52;1716030;83;21068;-74
2021/11/08 11:15:24;;;;;;;9.93;4.70;;;;;;;10.60;59.85;99251.67;1716327;83;20941;-74
2021/11/08 11:17:55;;;;;;;7.15;3.60;;;;;;;10.55;58.23;99260.06;1716111;83;21149;-72
2021/11/08 11:20:26;;;;;;;9.88;4.58;;;;;;;10.44;58.55;99259.56;1736285;81;20956;-73
2021/11/08 11:23:08;;;;;;;9.40;3.72;;;;;;;10.37;58.25;99260.64;1680297;83;20979;-79
2021/11/08 11:25:37;;;;;;;12.23;4.67;;;;;;;10.28;58.08;99253.52;1740856;82;20883;-73
2021/11/08 11:28:07;;;;;;;17.50;5.35;;;;;;;10.13;58.50;99245.97;1718628;83;21941;-72
2021/11/08 11:30:44;;;;;;;11.50;4.95;;;;;;;10.11;59.09;99244.66;1745715;80;21161;-75
2021/11/08 11:33:18;;;;;;;8.18;3.90;;;;;;;10.15;58.27;99223.70;1746072;81;21086;-75
2021/11/08 11:35:52;;;;;;;13.75;4.28;;;;;;;10.17;58.49;99248.88;1728890;81;20940;-75
2021/11/08 11:38:34;;;;;;;10.28;4.65;;;;;;;10.17;59.33;99246.94;1728081;81;21504;-75
2021/11/08 11:41:16;;;;;;;12.03;4.20;;;;;;;10.23;59.49;99249.00;1728020;81;21070;-75
2021/11/08 11:43:48;;;;;;;9.60;3.42;;;;;;;10.35;59.14;99242.32;1725900;81;21134;-77
2021/11/08 11:46:22;;;;;;;8.73;4.03;;;;;;;10.34;59.17;99249.50;1737266;81;20896;-82
2021/11/08 11:48:51;;;;;;;7.20;3.83;;;;;;;10.28;59.23;99248.03;1733196;80;21616;-77
2021/11/08 11:51:25;;;;;;;12.70;3.60;;;;;;;10.20;59.13;99244.15;1697948;84;20911;-72
2021/11/08 11:53:54;;;;;;;8.15;3.58;;;;;;;10.12;58.76;99247.66;1709857;83;21084;-78
2021/11/08 11:56:23;;;;;;;11.05;3.90;;;;;;;10.04;59.22;99253.36;1698382;83;21145;-77
2021/11/08 11:58:53;;;;;;;6.95;3.20;;;;;;;10.03;59.55;99255.86;1687886;82;21198;-75
2021/11/08 12:01:23;;;;;;;10.78;3.50;;;;;;;10.01;59.48;99251.26;1717080;81;21038;-77
2021/11/08 12:03:51;;;;;;;7.97;2.98;;;;;;;9.97;59.03;99252.21;1697808;83;21016;-70
2021/11/08 12:06:25;;;;;;;6.78;2.85;;;;;;;9.85;58.83;99250.08;1742774;81;21050;-80
2021/11/08 12:08:56;;;;;;;5.72;2.77;;;;;;;9.76;59.40;99254.19;1733022;81;21317;-72
2021/11/08 12:11:41;;;;;;;7.23;3.10;;;;;;;9.71;59.35;99256.27;1740721;81;20985;-71
2021/11/08 12:14:22;;;;;;;11.48;4.92;;;;;;;9.65;58.99;99243.83;1695156;83;21003;-75
2021/11/08 12:16:57;;;;;;;;;;;;;;;9.59;59.29;99253.56;1741516;82;21028;-73
2021/11/08 12:19:27;;;;;;;15.10;5.47;;;;;;;9.58;58.94;99263.47;1736986;81;20224;-79
2021/11/08 12:21:53;;;;;;;10.30;4.37;;;;;;;9.60;59.32;99257.92;1738316;80;21490;-76
2021/11/08 12:24:24;;;;;;;15.65;5.42;;;;;;;9.66;58.78;99255.84;1716434;81;21022;-73
2021/11/08 12:27:09;;;;;;;12.07;4.28;;;;;;;9.69;58.85;99262.06;1705869;81;21077;-81
2021/11/08 12:29:53;;;;;;;15.53;5.80;;;;;;;9.72;59.82;99257.32;1731405;80;21036;-75
2021/11/08 12:32:21;;;;;;;11.40;4.95;;;;;;;9.72;58.42;99271.59;1718117;82;21059;-76
2021/11/08 12:34:55;;;;;;;13.08;4.80;;;;;;;9.72;58.35;99279.81;1708838;81;21561;-75
2021/11/08 12:37:37;;;;;;;8.63;3.50;;;;;;;9.73;58.06;99283.61;1722220;81;20986;-76
2021/11/08 12:40:07;;;;;;;7.20;2.85;;;;;;;9.75;58.75;99294.26;1740917;81;20997;-74
2021/11/08 12:42:43;;;;;;;10.82;3.22;;;;;;;9.72;58.72;99279.25;1711512;82;20983;-79
2021/11/08 12:45:26;;;;;;;13.25;3.20;;;;;;;9.75;58.76;99279.18;1727399;81;20995;-87
2021/11/08 12:48:14;;;;;;;12.05;3.27;;;;;;;9.81;59.12;99274.61;1701780;83;21736;-75
2021/11/08 12:50:47;;;;;;;8.60;3.37;;;;;;;9.84;59.67;99286.28;1698619;83;21037;-74
2021/11/08 12:53:29;;;;;;;6.70;3.37;;;;;;;9.84;59.21;99301.92;1742076;81;20932;-78
2021/11/08 12:56:01;;;;;;;11.97;3.80;;;;;;;9.82;59.01;99281.68;1674478;83;21173;-75
2021/11/08 12:58:36;;;;;;;18.10;5.28;;;;;;;9.80;59.24;99292.75;1694375;83;20967;-75
2021/11/08 13:01:04;;;;;;;10.38;4.45;;;;;;;9.76;60.63;99303.53;1704548;83;21167;-82
2021/11/08 13:03:38;;;;;;;12.00;4.67;;;;;;;9.79;60.05;99298.80;1699981;83;20925;-84
2021/11/08 13:06:04;;;;;;;11.83;4.33;;;;;;;9.83;60.50;99305.23;1703858;82;20971;-87
2021/11/08 13:08:33;;;;;;;13.05;5.25;;;;;;;9.86;60.30;99308.70;1713964;83;21778;-79
2021/11/08 13:11:10;;;;;;;16.15;6.55;;;;;;;9.84;60.07;99319.19;1742057;81;20986;-76
2021/11/08 13:13:44;;;;;;;19.57;7.78;;;;;;;9.80;61.42;99317.42;1744969;80;21227;-79
2021/11/08 13:16:12;;;;;;;22.07;8.85;;;;;;;9.77;61.43;99318.86;1741152;80;20966;-73
2021/11/08 13:18:43;;;;;;;14.80;5.87;;;;;;;9.71;61.00;99327.53;1741523;81;21010;-80